Time;durP1;ratioP1;P1;durP2;ratioP2;P2;SDS_P1;SDS_P2;PMS_P1;PMS_P2;Temp;Humidity;BMP_temperature;BMP_pressure;BME280_temperature;BME280_humidity;BME280_pressure;Samples;Min_cycle;Max_cycle;Signal;HPM_P1;HPM_P2
2022/02/26 00:01:10;;;;;;;5.82;1.10;;;;;;;3.92;100.00;101155.28;7389512;19;20477;-88
2022/02/26 00:03:37;;;;;;;1.58;1.50;;;;;;;3.88;100.00;101140.75;7390140;19;20033;-87
2022/02/26 00:06:03;;;;;;;1.52;1.10;;;;;;;3.84;100.00;101151.00;7390942;19;20086;-89
2022/02/26 00:08:28;;;;;;;10.90;2.60;;;;;;;3.77;100.00;101149.03;7391602;19;20044;-87
2022/02/26 00:10:54;;;;;;;2.40;1.75;;;;;;;3.69;100.00;101154.97;7395947;19;20010;-86
2022/02/26 00:13:19;;;;;;;0.80;0.80;;;;;;;3.64;100.00;101163.63;7391337;19;20030;-86
2022/02/26 00:15:45;;;;;;;3.22;1.05;;;;;;;3.59;100.00;101156.56;7390177;19;20014;-87
2022/02/26 00:18:11;;;;;;;0.95;0.95;;;;;;;3.55;100.00;101166.03;7393163;19;20015;-90
2022/02/26 00:20:36;;;;;;;0.65;0.50;;;;;;;3.49;100.00;101162.88;7395149;19;20017;-90
2022/02/26 00:23:03;;;;;;;1.13;1.08;;;;;;;3.48;100.00;101166.81;7392328;19;20018;-90
2022/02/26 00:25:28;;;;;;;1.33;1.20;;;;;;;3.48;100.00;101164.06;7393799;19;20535;-90
2022/02/26 00:27:54;;;;;;;1.33;1.02;;;;;;;3.42;100.00;101162.09;7394340;19;20015;-89
2022/02/26 00:30:20;;;;;;;2.17;0.88;;;;;;;3.38;100.00;101155.81;7396046;19;20025;-88
2022/02/26 00:32:46;;;;;;;2.13;1.48;;;;;;;3.39;100.00;101138.09;7391881;19;20365;-89
2022/02/26 00:35:12;;;;;;;0.60;0.60;;;;;;;3.36;100.00;101139.69;7390520;19;20018;-90
2022/02/26 00:37:38;;;;;;;0.73;0.73;;;;;;;3.37;100.00;101154.22;7393696;19;20029;-89
2022/02/26 00:40:05;;;;;;;6.93;1.55;;;;;;;3.32;100.00;101141.66;7393632;19;20015;-87
2022/02/26 00:42:30;;;;;;;1.05;1.05;;;;;;;3.26;100.00;101125.94;7389261;19;20378;-87
2022/02/26 00:44:56;;;;;;;0.63;0.63;;;;;;;3.26;100.00;101126.72;7388976;19;20353;-90
2022/02/26 00:47:22;;;;;;;1.95;1.45;;;;;;;3.26;100.00;101142.44;7392280;19;20011;-89
2022/02/26 00:49:47;;;;;;;37.45;1.90;;;;;;;3.25;100.00;101149.16;7393249;19;20010;-89
2022/02/26 00:52:28;;;;;;;1.00;0.82;;;;;;;3.26;100.00;101139.69;7391539;19;20029;-89
2022/02/26 00:54:54;;;;;;;0.70;0.70;;;;;;;3.30;100.00;101154.22;7391694;19;20477;-87
2022/02/26 00:57:22;;;;;;;0.25;0.25;;;;;;;3.35;100.00;101149.13;7391309;19;20018;-87
2022/02/26 00:59:48;;;;;;;0.77;0.77;;;;;;;3.40;100.00;101153.47;7394560;19;20018;-89
2022/02/26 01:02:13;;;;;;;0.68;0.68;;;;;;;3.42;100.00;101145.59;7392442;19;20039;-89
2022/02/26 01:04:40;;;;;;;1.38;0.98;;;;;;;3.43;100.00;101152.66;7393164;19;20019;-86
2022/02/26 01:07:07;;;;;;;2.30;0.65;;;;;;;3.47;100.00;101153.44;7395186;19;20448;-88
2022/02/26 01:09:33;;;;;;;1.98;0.88;;;;;;;3.46;100.00;101157.38;7396085;19;20464;-90
2022/02/26 01:12:00;;;;;;;0.77;0.73;;;;;;;3.46;100.00;101160.13;7393391;19;20038;-89
2022/02/26 01:14:25;;;;;;;4.95;1.02;;;;;;;3.46;100.00;101174.69;7389435;19;20517;-88
2022/02/26 01:16:51;;;;;;;2.38;0.52;;;;;;;3.48;100.00;101166.03;7396793;19;20015;-91
2022/02/26 01:19:18;;;;;;;0.52;0.52;;;;;;;3.48;100.00;101172.31;7398294;19;20042;-88
2022/02/26 01:21:44;;;;;;;2.30;1.65;;;;;;;3.42;100.00;101173.13;7395344;19;20026;-87
2022/02/26 01:24:11;;;;;;;2.08;0.82;;;;;;;3.35;100.00;101184.94;7394045;19;20022;-88
2022/02/26 01:26:37;;;;;;;0.50;0.50;;;;;;;3.34;100.00;101177.03;7399507;19;20035;-87
2022/02/26 01:29:04;;;;;;;0.75;0.75;;;;;;;3.32;100.00;101168.38;7397483;19;20022;-88
2022/02/26 01:31:32;;;;;;;4.10;1.65;;;;;;;3.29;100.00;101175.47;7394059;19;20037;-87
2022/02/26 01:33:59;;;;;;;0.73;0.70;;;;;;;3.27;100.00;101164.06;7394105;19;20460;-88
2022/02/26 01:36:26;;;;;;;0.77;0.47;;;;;;;3.32;100.00;101160.13;7394224;19;20030;-91
2022/02/26 01:38:52;;;;;;;4.93;0.75;;;;;;;3.33;100.00;101159.75;7395720;19;20070;-91
2022/02/26 01:41:19;;;;;;;1.10;1.08;;;;;;;3.36;100.00;101150.69;7399363;19;20044;-91
2022/02/26 01:43:44;;;;;;;0.25;0.25;;;;;;;3.42;100.00;101153.84;7396384;19;20074;-92
2022/02/26 01:46:11;;;;;;;6.70;0.73;;;;;;;3.41;100.00;101155.00;7396103;19;20011;-91
2022/02/26 01:48:37;;;;;;;0.55;0.55;;;;;;;3.39;100.00;101149.13;7397594;19;20014;-91
2022/02/26 01:51:05;;;;;;;7.20;1.15;;;;;;;3.37;100.00;101149.53;7397428;19;20032;-91
2022/02/26 01:53:30;;;;;;;2.22;0.65;;;;;;;3.33;100.00;101150.69;7390030;19;20477;-92
2022/02/26 01:55:56;;;;;;;1.33;1.08;;;;;;;3.31;100.00;101142.84;7394871;19;20006;-91
2022/02/26 01:58:22;;;;;;;4.10;1.27;;;;;;;3.27;100.00;101155.81;7394986;19;20026;-90
2022/02/26 02:00:48;;;;;;;2.22;1.20;;;;;;;3.25;100.00;101160.91;7400699;19;20475;-90
2022/02/26 02:03:13;;;;;;;0.90;0.90;;;;;;;3.20;100.00;101152.28;7403785;19;20010;-96
2022/02/26 02:05:39;;;;;;;1.75;1.38;;;;;;;3.16;100.00;101157.00;7398436;19;20124;-95
2022/02/26 02:08:05;;;;;;;5.82;1.17;;;;;;;3.15;100.00;101155.41;7397435;19;20484;-96
2022/02/26 02:10:32;;;;;;;25.48;2.40;;;;;;;3.16;100.00;101148.75;7404040;19;20592;-95
2022/02/26 02:12:59;;;;;;;5.15;1.55;;;;;;;3.15;100.00;101147.16;7405448;19;20011;-94
2022/02/26 02:15:32;;;;;;;1.70;0.98;;;;;;;3.11;100.00;101143.63;7401812;19;20056;-96
2022/02/26 02:17:58;;;;;;;10.20;1.20;;;;;;;3.01;100.00;101142.47;7401322;19;20022;-95
2022/02/26 02:20:24;;;;;;;2.88;1.55;;;;;;;2.97;100.00;101142.44;7404381;19;20014;-96
2022/02/26 02:22:49;;;;;;;1.92;0.70;;;;;;;2.97;100.00;101136.94;7403499;19;20051;-96
2022/02/26 02:25:17;;;;;;;10.82;0.95;;;;;;;2.93;100.00;101129.88;7401911;19;20052;-96
2022/02/26 02:27:43;;;;;;;9.07;1.02;;;;;;;2.95;100.00;101125.56;7403447;19;20010;-96
2022/02/26 02:30:10;;;;;;;8.30;1.90;;;;;;;3.00;100.00;101113.38;7406325;19;20631;-93
2022/02/26 02:32:35;;;;;;;3.03;1.63;;;;;;;3.01;100.00;101107.47;7408497;19;20153;-95
2022/02/26 02:35:01;;;;;;;1.17;0.70;;;;;;;3.04;100.00;101123.19;7408879;19;20015;-96
2022/02/26 02:37:26;;;;;;;1.65;1.40;;;;;;;3.05;100.00;101122.00;7406051;19;20048;-96
2022/02/26 02:39:52;;;;;;;0.93;0.93;;;;;;;3.11;100.00;101118.88;7406257;19;20021;-93
2022/02/26 02:42:17;;;;;;;1.00;0.90;;;;;;;3.15;100.00;101108.63;7396300;19;20078;-94
2022/02/26 02:44:43;;;;;;;0.57;0.57;;;;;;;3.18;100.00;101118.88;7397457;19;20042;-95
2022/02/26 02:47:09;;;;;;;0.40;0.40;;;;;;;3.20;100.00;101111.00;7399758;19;20072;-95
2022/02/26 02:49:35;;;;;;;0.63;0.63;;;;;;;3.23;100.00;101099.22;7399864;19;20026;-93
2022/02/26 02:52:01;;;;;;;1.80;1.45;;;;;;;3.26;100.00;101104.69;7395209;19;20014;-94
2022/02/26 02:54:27;;;;;;;1.33;1.15;;;;;;;3.35;100.00;101107.03;7392232;19;20035;-93
2022/02/26 02:56:52;;;;;;;0.82;0.82;;;;;;;3.35;100.00;101113.34;7394858;19;20086;-92
2022/02/26 02:59:18;;;;;;;1.48;0.98;;;;;;;3.37;100.00;101105.47;7395985;19;20014;-92
2022/02/26 03:01:44;;;;;;;1.45;1.05;;;;;;;3.38;100.00;101100.75;7393197;19;20380;-90
2022/02/26 03:04:09;;;;;;;4.53;1.85;;;;;;;3.37;100.00;101099.16;7394061;19;20018;-91
2022/02/26 03:06:35;;;;;;;0.60;0.60;;;;;;;3.36;100.00;101103.88;7392005;19;20006;-86
2022/02/26 03:09:01;;;;;;;6.80;1.02;;;;;;;3.37;100.00;101099.97;7392493;19;20017;-88
2022/02/26 03:11:27;;;;;;;1.25;1.15;;;;;;;3.36;100.00;101094.84;7393290;19;20011;-87
2022/02/26 03:13:52;;;;;;;0.85;0.77;;;;;;;3.33;100.00;101090.13;7393186;19;20018;-87
2022/02/26 03:16:18;;;;;;;2.40;0.95;;;;;;;3.31;100.00;101095.25;7393419;19;20006;-87
2022/02/26 03:18:44;;;;;;;0.73;0.73;;;;;;;3.27;100.00;101102.75;7391567;19;20021;-87
2022/02/26 03:21:10;;;;;;;0.88;0.82;;;;;;;3.20;100.00;101102.75;7392644;19;20011;-87
2022/02/26 03:23:36;;;;;;;1.50;1.02;;;;;;;3.17;100.00;101089.75;7390009;19;20034;-87
2022/02/26 03:26:02;;;;;;;4.95;1.17;;;;;;;3.11;100.00;101089.38;7391772;19;20019;-87
2022/02/26 03:28:28;;;;;;;0.35;0.35;;;;;;;3.06;100.00;101087.81;7393410;19;20019;-87
2022/02/26 03:30:53;;;;;;;20.27;1.17;;;;;;;3.04;100.00;101081.91;7396094;19;20040;-87
2022/02/26 03:33:19;;;;;;;1.08;0.98;;;;;;;2.99;100.00;101085.06;7395552;19;20015;-87
2022/02/26 03:35:44;;;;;;;11.38;1.75;;;;;;;3.03;100.00;101079.56;7390202;19;20026;-85
2022/02/26 03:38:10;;;;;;;0.70;0.70;;;;;;;3.02;100.00;101075.22;7391020;19;20031;-86
2022/02/26 03:40:36;;;;;;;0.40;0.40;;;;;;;2.98;100.00;101079.97;7394877;19;20038;-86
2022/02/26 03:43:03;;;;;;;3.85;1.15;;;;;;;2.99;100.00;101089.78;7391101;19;20030;-86
2022/02/26 03:45:28;;;;;;;2.38;0.93;;;;;;;2.94;100.00;101079.97;7390419;19;20042;-85
2022/02/26 03:47:54;;;;;;;5.78;1.05;;;;;;;2.94;100.00;101084.69;7389966;19;20018;-86
2022/02/26 03:50:20;;;;;;;1.15;1.08;;;;;;;2.97;100.00;101087.41;7394672;19;20081;-86
2022/02/26 03:52:45;;;;;;;0.75;0.40;;;;;;;2.98;100.00;101086.25;7389696;19;20026;-85
2022/02/26 03:55:11;;;;;;;7.85;1.23;;;;;;;2.99;100.00;101096.06;7389681;19;20025;-85
2022/02/26 03:57:37;;;;;;;4.25;0.73;;;;;;;3.00;100.00;101103.16;7389761;19;20365;-85
2022/02/26 04:00:07;;;;;;;1.88;0.65;;;;;;;3.01;100.00;101098.44;7391891;19;20028;-86
2022/02/26 04:02:38;;;;;;;15.77;1.25;;;;;;;3.00;100.00;101078.38;7392299;19;20022;-85
2022/02/26 04:05:04;;;;;;;1.20;1.20;;;;;;;2.99;100.00;101093.31;7390421;19;20015;-85
2022/02/26 04:07:30;;;;;;;1.00;0.95;;;;;;;2.96;100.00;101091.38;7392360;19;20014;-85
2022/02/26 04:09:55;;;;;;;0.70;0.70;;;;;;;2.92;100.00;101090.56;7393280;19;20461;-86
2022/02/26 04:12:21;;;;;;;0.50;0.50;;;;;;;2.89;100.00;101091.38;7390902;19;20014;-85
2022/02/26 04:14:46;;;;;;;4.38;1.20;;;;;;;2.86;100.00;101086.63;7388393;19;20019;-85
2022/02/26 04:17:12;;;;;;;1.40;1.35;;;;;;;2.87;100.00;101073.69;7390402;19;20023;-85
2022/02/26 04:19:37;;;;;;;3.97;1.08;;;;;;;2.86;100.00;101070.13;7390539;19;20355;-85
2022/02/26 04:22:03;;;;;;;0.50;0.50;;;;;;;2.87;100.00;101074.47;7388994;19;20046;-85
2022/02/26 04:24:29;;;;;;;2.60;1.05;;;;;;;2.88;100.00;101084.28;7388097;19;20026;-86
2022/02/26 04:26:54;;;;;;;1.10;1.10;;;;;;;2.86;100.00;101083.88;7389715;19;20014;-85
2022/02/26 04:29:20;;;;;;;0.30;0.30;;;;;;;2.82;100.00;101074.84;7390362;19;20017;-85
2022/02/26 04:31:45;;;;;;;1.10;0.98;;;;;;;2.82;100.00;101083.09;7390810;19;20086;-85
2022/02/26 04:34:11;;;;;;;0.75;0.75;;;;;;;2.80;100.00;101088.22;7388826;19;20090;-85
2022/02/26 04:36:36;;;;;;;1.73;0.88;;;;;;;2.81;100.00;101067.78;7388181;19;20022;-85
2022/02/26 04:39:03;;;;;;;1.25;1.15;;;;;;;2.83;100.00;101084.69;7389655;19;20018;-86
2022/02/26 04:41:29;;;;;;;1.17;1.13;;;;;;;2.82;100.00;101085.06;7389790;19;20018;-86
2022/02/26 04:43:55;;;;;;;10.13;1.50;;;;;;;2.82;100.00;101063.06;7390244;19;20377;-85
2022/02/26 04:46:22;;;;;;;0.50;0.50;;;;;;;2.83;100.00;101072.88;7391155;19;20026;-91
2022/02/26 04:48:47;;;;;;;1.10;1.10;;;;;;;2.79;100.00;101070.16;7391140;19;20015;-90
2022/02/26 04:51:13;;;;;;;0.45;0.45;;;;;;;2.83;100.00;101081.94;7402489;19;20014;-92
2022/02/26 04:53:39;;;;;;;1.75;1.58;;;;;;;2.81;100.00;101067.78;7397857;19;20536;-93
2022/02/26 04:56:06;;;;;;;7.18;0.73;;;;;;;2.83;100.00;101059.94;7397914;19;20488;-91
2022/02/26 04:58:33;;;;;;;0.63;0.63;;;;;;;2.87;100.00;101071.72;7398301;19;20472;-89
2022/02/26 05:00:58;;;;;;;0.73;0.73;;;;;;;2.90;100.00;101070.16;7402891;19;20011;-91
2022/02/26 05:03:24;;;;;;;3.15;0.40;;;;;;;2.91;100.00;101067.00;7397928;19;20033;-92
2022/02/26 05:05:50;;;;;;;0.82;0.40;;;;;;;2.93;100.00;101056.38;7399408;19;20043;-94
2022/02/26 05:08:16;;;;;;;0.45;0.45;;;;;;;2.96;100.00;101055.59;7399380;19;20013;-93
2022/02/26 05:10:43;;;;;;;1.38;1.27;;;;;;;2.96;100.00;101058.34;7400154;19;20011;-88
2022/02/26 05:13:09;;;;;;;1.65;0.88;;;;;;;2.99;100.00;101052.03;7396175;19;20015;-82
2022/02/26 05:15:34;;;;;;;2.40;1.05;;;;;;;3.03;100.00;101052.81;7396202;19;20018;-81
2022/02/26 05:18:00;;;;;;;2.10;1.55;;;;;;;3.00;100.00;101056.38;7394162;19;20485;-87
2022/02/26 05:20:26;;;;;;;0.70;0.70;;;;;;;2.97;100.00;101046.16;7394941;19;20021;-89
2022/02/26 05:22:51;;;;;;;0.40;0.40;;;;;;;2.95;100.00;101056.75;7398243;19;20472;-89
2022/02/26 05:25:17;;;;;;;0.93;0.90;;;;;;;2.96;100.00;101047.34;7389659;19;20026;-93
2022/02/26 05:27:42;;;;;;;0.85;0.75;;;;;;;2.91;100.00;101044.97;7391602;19;20022;-89
2022/02/26 05:30:11;;;;;;;1.75;0.82;;;;;;;2.90;100.00;101054.41;7395180;19;20420;-89
2022/02/26 05:32:37;;;;;;;5.15;1.33;;;;;;;2.88;100.00;101056.00;7393102;19;20089;-89
2022/02/26 05:35:05;;;;;;;2.45;2.25;;;;;;;2.83;100.00;101048.94;7395799;19;20056;-88
2022/02/26 05:37:30;;;;;;;3.22;1.35;;;;;;;2.78;100.00;101046.56;7398254;19;20017;-89
2022/02/26 05:39:56;;;;;;;6.32;1.70;;;;;;;2.76;100.00;101050.88;7401855;19;20011;-89
2022/02/26 05:42:22;;;;;;;1.00;1.00;;;;;;;2.76;100.00;101065.44;7397291;19;20362;-89
2022/02/26 05:44:47;;;;;;;1.58;1.45;;;;;;;2.70;100.00;101034.00;7396832;19;20345;-89
2022/02/26 05:47:13;;;;;;;1.20;1.10;;;;;;;2.72;100.00;101056.41;7399149;19;20016;-88
2022/02/26 05:49:39;;;;;;;1.27;0.82;;;;;;;2.73;100.00;101059.94;7400873;19;20026;-88
2022/02/26 05:52:05;;;;;;;4.63;0.55;;;;;;;2.72;100.00;101061.09;7401367;19;20022;-89
2022/02/26 05:54:31;;;;;;;0.80;0.80;;;;;;;2.71;100.00;101057.56;7397340;19;20015;-90
2022/02/26 05:56:56;;;;;;;1.85;1.33;;;;;;;2.70;100.00;101050.50;7398877;19;20037;-90
2022/02/26 05:59:22;;;;;;;1.75;1.05;;;;;;;2.68;100.00;101057.56;7400714;19;20039;-90
2022/02/26 06:01:47;;;;;;;0.65;0.65;;;;;;;2.71;100.00;101054.81;7396690;19;20011;-90
2022/02/26 06:04:13;;;;;;;0.55;0.55;;;;;;;2.73;100.00;101044.19;7399090;19;20098;-90
2022/02/26 06:06:38;;;;;;;0.60;0.60;;;;;;;2.70;100.00;101038.72;7400569;19;20015;-90
2022/02/26 06:09:04;;;;;;;1.90;1.77;;;;;;;2.68;100.00;101047.38;7399082;19;20035;-88
2022/02/26 06:11:29;;;;;;;1.48;1.38;;;;;;;2.70;100.00;101045.00;7397569;19;20022;-88
2022/02/26 06:13:55;;;;;;;1.60;1.50;;;;;;;2.71;100.00;101046.56;7397160;19;20015;-89
2022/02/26 06:16:21;;;;;;;0.90;0.90;;;;;;;2.76;100.00;101048.94;7398486;19;20015;-88
2022/02/26 06:18:46;;;;;;;18.65;1.45;;;;;;;2.72;100.00;101044.59;7398181;19;20022;-89
2022/02/26 06:21:12;;;;;;;5.20;1.83;;;;;;;2.70;100.00;101050.50;7397484;19;20035;-88
2022/02/26 06:23:37;;;;;;;0.98;0.98;;;;;;;2.67;100.00;101050.47;7399363;19;20076;-89
2022/02/26 06:26:03;;;;;;;0.82;0.77;;;;;;;2.68;100.00;101052.06;7395442;19;20462;-85
2022/02/26 06:28:29;;;;;;;0.65;0.65;;;;;;;2.67;100.00;101040.28;7394103;19;20042;-84
2022/02/26 06:31:00;;;;;;;0.45;0.45;;;;;;;2.67;100.00;101059.53;7398535;19;20034;-84
2022/02/26 06:33:28;;;;;;;16.65;1.38;;;;;;;2.68;100.00;101052.88;7395090;19;20078;-84
2022/02/26 06:35:54;;;;;;;1.00;0.93;;;;;;;2.72;100.00;101053.66;7394832;19;20028;-85
2022/02/26 06:38:20;;;;;;;1.17;1.17;;;;;;;2.76;100.00;101059.94;7395670;19;20021;-84
2022/02/26 06:40:46;;;;;;;3.13;0.65;;;;;;;2.74;100.00;101054.03;7397474;19;20033;-85
2022/02/26 06:43:11;;;;;;;0.65;0.65;;;;;;;2.78;100.00;101054.81;7393816;19;20358;-85
2022/02/26 06:45:37;;;;;;;0.50;0.50;;;;;;;2.86;100.00;101053.63;7394476;19;20029;-85
2022/02/26 06:48:03;;;;;;;2.03;1.48;;;;;;;3.05;100.00;101046.94;7393737;19;20018;-85
2022/02/26 06:50:30;;;;;;;3.72;0.47;;;;;;;3.19;100.00;101054.38;7396675;19;20017;-84
2022/02/26 06:52:56;;;;;;;1.17;1.13;;;;;;;3.30;100.00;101053.16;7396719;19;20042;-84
2022/02/26 06:55:22;;;;;;;0.95;0.95;;;;;;;3.34;100.00;101061.41;7398007;19;20018;-84
2022/02/26 06:57:47;;;;;;;0.38;0.38;;;;;;;3.34;100.00;101061.41;7396227;19;20357;-84
2022/02/26 07:00:14;;;;;;;0.70;0.70;;;;;;;3.32;100.00;101061.03;7395293;19;20010;-85
2022/02/26 07:02:39;;;;;;;4.57;1.67;;;;;;;3.34;100.00;101056.69;7389653;19;20015;-85
2022/02/26 07:05:06;;;;;;;0.80;0.80;;;;;;;3.35;100.00;101057.50;7394012;19;20087;-85
2022/02/26 07:07:32;;;;;;;6.32;1.30;;;;;;;3.40;100.00;101054.34;7396178;19;20465;-84
2022/02/26 07:09:57;;;;;;;0.45;0.45;;;;;;;3.39;100.00;101050.00;7395304;19;20006;-83
2022/02/26 07:12:23;;;;;;;7.53;2.35;;;;;;;3.46;100.00;101041.72;7393210;19;20010;-86
2022/02/26 07:14:49;;;;;;;3.10;0.80;;;;;;;3.57;100.00;101036.97;7394445;19;20018;-85
2022/02/26 07:17:15;;;;;;;11.50;1.67;;;;;;;3.58;100.00;101044.81;7394757;19;20015;-86
2022/02/26 07:19:42;;;;;;;0.50;0.50;;;;;;;3.66;100.00;101049.13;7395840;19;20018;-86
2022/02/26 07:22:07;;;;;;;2.25;0.95;;;;;;;3.65;100.00;101060.53;7394993;19;20050;-85
2022/02/26 07:24:33;;;;;;;1.00;0.68;;;;;;;3.65;100.00;101055.03;7394655;19;20481;-84
2022/02/26 07:26:59;;;;;;;8.82;2.42;;;;;;;3.65;100.00;101055.03;7395043;19;20017;-85
2022/02/26 07:29:25;;;;;;;2.97;1.42;;;;;;;3.72;100.00;101055.00;7394984;19;20034;-85
2022/02/26 07:31:50;;;;;;;1.17;1.17;;;;;;;3.77;100.00;101051.81;7395410;19;20018;-85
2022/02/26 07:34:16;;;;;;;1.00;0.90;;;;;;;3.80;100.00;101040.00;7394676;19;20014;-86
2022/02/26 07:36:41;;;;;;;5.00;1.77;;;;;;;3.80;100.00;101034.50;7396258;19;20006;-85
2022/02/26 07:39:07;;;;;;;5.28;1.45;;;;;;;3.78;100.00;101031.38;7394620;19;20586;-85
2022/02/26 07:41:33;;;;;;;0.28;0.20;;;;;;;3.79;100.00;101054.97;7394149;19;20030;-85
2022/02/26 07:43:59;;;;;;;3.92;1.20;;;;;;;3.78;100.00;101043.19;7394879;19;20032;-84
2022/02/26 07:46:24;;;;;;;2.95;0.73;;;;;;;3.80;100.00;101046.31;7395386;19;20402;-85
2022/02/26 07:48:50;;;;;;;0.60;0.60;;;;;;;3.81;100.00;101053.38;7395209;19;20037;-85
2022/02/26 07:51:16;;;;;;;3.15;0.90;;;;;;;3.82;100.00;101048.66;7395641;19;20022;-86
2022/02/26 07:53:42;;;;;;;1.13;0.77;;;;;;;3.84;100.00;101051.81;7394555;19;20019;-86
2022/02/26 07:56:09;;;;;;;4.30;1.67;;;;;;;3.85;100.00;101050.63;7393850;19;20022;-85
2022/02/26 07:58:34;;;;;;;2.33;0.88;;;;;;;3.84;100.00;101043.53;7393918;19;20018;-84
2022/02/26 08:01:00;;;;;;;1.25;0.85;;;;;;;3.93;100.00;101065.94;7393209;19;20014;-84
2022/02/26 08:03:26;;;;;;;17.42;0.93;;;;;;;3.93;100.00;101065.94;7394929;19;20015;-84
2022/02/26 08:05:51;;;;;;;7.13;1.08;;;;;;;4.15;100.00;101061.09;7395089;19;20102;-84
2022/02/26 08:08:17;;;;;;;0.43;0.40;;;;;;;4.18;100.00;101066.56;7395539;19;20552;-85
2022/02/26 08:10:42;;;;;;;0.90;0.90;;;;;;;4.15;100.00;101070.16;7395490;19;20374;-84
2022/02/26 08:13:08;;;;;;;3.17;1.20;;;;;;;4.15;100.00;101056.38;7395550;19;20022;-84
2022/02/26 08:15:33;;;;;;;10.63;1.45;;;;;;;4.14;100.00;101071.34;7396249;19;20007;-85
2022/02/26 08:17:59;;;;;;;0.60;0.60;;;;;;;4.09;100.00;101058.00;7393459;19;21337;-84
2022/02/26 08:20:25;;;;;;;0.73;0.73;;;;;;;4.10;100.00;101059.53;7393029;19;20027;-85
2022/02/26 08:22:54;;;;;;;3.35;1.20;;;;;;;4.11;100.00;101055.63;7393126;19;20045;-85
2022/02/26 08:25:21;;;;;;;4.43;1.38;;;;;;;4.26;100.00;101056.31;7395590;19;20017;-85
2022/02/26 08:27:46;;;;;;;2.95;1.08;;;;;;;4.34;100.00;101057.81;7399645;19;20029;-85
2022/02/26 08:30:15;;;;;;;1.98;1.35;;;;;;;4.46;100.00;101049.09;7399281;19;20465;-84
2022/02/26 08:32:41;;;;;;;1.92;0.55;;;;;;;4.51;100.00;101049.44;7400969;19;20014;-84
2022/02/26 08:35:08;;;;;;;1.08;0.80;;;;;;;4.56;100.00;101043.50;7398875;19;20077;-84
2022/02/26 08:37:38;;;;;;;6.72;1.45;;;;;;;4.68;100.00;101049.72;7399759;19;20026;-84
2022/02/26 08:40:06;;;;;;;26.10;1.00;;;;;;;4.78;100.00;101040.56;7403142;19;20098;-84
2022/02/26 08:42:32;;;;;;;7.07;1.40;;;;;;;4.80;100.00;101041.72;7397660;19;20014;-85
2022/02/26 08:44:57;;;;;;;1.63;1.45;;;;;;;4.83;100.00;101046.41;7398425;19;20695;-84
2022/02/26 08:47:24;;;;;;;0.95;0.82;;;;;;;4.90;100.00;101043.59;7399892;19;20010;-85
2022/02/26 08:49:50;;;;;;;1.13;0.80;;;;;;;5.10;100.00;101043.81;7401615;19;20018;-87
2022/02/26 08:52:16;;;;;;;2.40;1.95;;;;;;;5.27;100.00;101043.63;7402833;19;20014;-84
2022/02/26 08:54:41;;;;;;;8.35;0.88;;;;;;;5.37;100.00;101041.97;7397153;19;20479;-84
2022/02/26 08:57:07;;;;;;;3.88;0.82;;;;;;;5.49;100.00;101049.72;7397714;19;20038;-83
2022/02/26 08:59:33;;;;;;;9.82;1.77;;;;;;;5.58;100.00;101036.19;7396481;19;20473;-83
2022/02/26 09:01:59;;;;;;;2.80;1.30;;;;;;;5.75;100.00;101046.25;7397674;19;20045;-83
2022/02/26 09:04:25;;;;;;;1.17;0.93;;;;;;;6.01;100.00;101034.47;7397332;19;20011;-83
2022/02/26 09:06:50;;;;;;;11.82;1.15;;;;;;;6.20;100.00;101037.75;7396841;19;20497;-82
2022/02/26 09:09:16;;;;;;;0.50;0.50;;;;;;;6.39;100.00;101037.88;7399479;19;20003;-82
2022/02/26 09:11:42;;;;;;;3.33;0.90;;;;;;;6.57;100.00;101026.53;7398804;19;20010;-83
2022/02/26 09:14:09;;;;;;;5.25;1.25;;;;;;;6.65;100.00;101019.69;7395816;19;20018;-83
2022/02/26 09:16:35;;;;;;;0.57;0.50;;;;;;;6.74;100.00;101022.69;7401228;19;20018;-87
2022/02/26 09:19:00;;;;;;;4.82;1.38;;;;;;;6.75;100.00;101016.75;7400395;19;20098;-86
2022/02/26 09:21:26;;;;;;;9.38;1.45;;;;;;;6.87;100.00;101021.69;7398901;19;20015;-87
2022/02/26 09:23:53;;;;;;;1.77;0.65;;;;;;;6.87;100.00;101020.88;7400791;19;20018;-87
2022/02/26 09:26:19;;;;;;;1.13;0.93;;;;;;;6.93;100.00;101023.97;7400949;19;20499;-86
2022/02/26 09:28:45;;;;;;;1.88;0.98;;;;;;;6.96;100.00;101021.13;7401138;19;20002;-86
2022/02/26 09:31:12;;;;;;;3.22;0.63;;;;;;;7.02;100.00;101016.66;7399903;19;20081;-85
2022/02/26 09:33:38;;;;;;;27.10;1.30;;;;;;;7.12;100.00;101018.47;7398908;19;20031;-85
2022/02/26 09:36:06;;;;;;;2.10;0.75;;;;;;;7.22;100.00;101011.94;7399622;19;20314;-85
2022/02/26 09:38:32;;;;;;;0.43;0.43;;;;;;;7.30;100.00;101023.66;7397435;19;20015;-85
2022/02/26 09:41:00;;;;;;;0.63;0.55;;;;;;;7.37;100.00;101018.00;7399825;19;20357;-85
2022/02/26 09:43:26;;;;;;;1.25;1.25;;;;;;;7.51;100.00;101010.16;7396553;19;20042;-85
2022/02/26 09:45:53;;;;;;;28.73;4.45;;;;;;;7.63;100.00;101006.78;7396814;19;20023;-86
2022/02/26 09:48:19;;;;;;;5.10;1.35;;;;;;;7.80;100.00;100999.28;7395758;19;20497;-85
2022/02/26 09:50:45;;;;;;;5.88;2.25;;;;;;;8.00;100.00;101013.13;7401092;19;20029;-86
2022/02/26 09:53:11;;;;;;;2.60;0.60;;;;;;;8.15;100.00;100994.94;7395602;19;20030;-86
2022/02/26 09:55:38;;;;;;;3.08;1.25;;;;;;;8.31;100.00;100989.47;7395944;19;20464;-85
2022/02/26 09:58:04;;;;;;;3.83;0.80;;;;;;;8.44;100.00;101000.66;7395741;19;20018;-85
2022/02/26 10:00:30;;;;;;;5.82;1.00;;;;;;;8.55;100.00;100990.88;7398690;19;20018;-85
2022/02/26 10:02:56;;;;;;;0.98;0.98;;;;;;;8.67;100.00;100984.59;7395336;19;20021;-86
2022/02/26 10:05:22;;;;;;;1.40;1.30;;;;;;;8.78;100.00;100985.09;7393961;19;20371;-84
2022/02/26 10:07:50;;;;;;;2.75;0.90;;;;;;;8.84;100.00;101002.81;7392805;19;20365;-84
2022/02/26 10:10:24;;;;;;;5.18;1.13;;;;;;;8.87;100.00;100988.06;7396639;19;20039;-84
2022/02/26 10:12:52;;;;;;;0.68;0.50;;;;;;;8.95;100.00;100983.06;7393939;19;20355;-82
2022/02/26 10:15:35;;;;;;;0.70;0.65;;;;;;;8.99;100.00;100994.88;7393079;19;20011;-83
2022/02/26 10:18:09;;;;;;;2.40;1.05;;;;;;;8.97;100.00;100988.97;7393097;19;20410;-82
2022/02/26 10:20:54;;;;;;;5.00;1.27;;;;;;;8.94;100.00;100981.53;7395285;19;20025;-82
2022/02/26 10:23:21;;;;;;;9.13;0.95;;;;;;;8.90;100.00;100984.38;7392349;19;20029;-82
2022/02/26 10:25:47;;;;;;;4.50;1.13;;;;;;;8.95;100.00;100983.06;7391513;19;20010;-82
2022/02/26 10:28:14;;;;;;;3.00;0.90;;;;;;;9.00;100.00;100983.34;7391379;19;20078;-83
2022/02/26 10:30:44;;;;;;;1.67;1.25;;;;;;;9.07;100.00;100983.13;7395260;19;20488;-85
2022/02/26 10:33:17;;;;;;;1.83;0.95;;;;;;;9.23;100.00;100975.97;7394223;19;20022;-82
2022/02/26 10:35:59;;;;;;;0.80;0.50;;;;;;;9.43;100.00;100985.72;7394117;19;20018;-82
2022/02/26 10:38:30;;;;;;;1.02;1.02;;;;;;;9.64;100.00;100984.31;7394308;19;20086;-82
2022/02/26 10:41:00;;;;;;;1.50;0.38;;;;;;;9.79;100.00;100979.91;7398638;19;20022;-83
2022/02/26 10:43:49;;;;;;;2.47;0.55;;;;;;;9.93;100.00;100974.72;7393159;19;20046;-82
2022/02/26 10:46:25;;;;;;;0.65;0.50;;;;;;;10.02;100.00;100979.63;7392183;19;20707;-82
2022/02/26 10:48:54;;;;;;;20.27;0.82;;;;;;;10.06;100.00;100966.38;7391427;19;20010;-82
2022/02/26 10:51:27;;;;;;;2.97;1.08;;;;;;;10.17;100.00;100968.84;7391672;19;20049;-82
2022/02/26 10:53:54;;;;;;;4.30;0.70;;;;;;;10.25;100.00;100959.81;7393062;19;20418;-84
2022/02/26 10:56:20;;;;;;;7.88;1.63;;;;;;;10.29;100.00;100954.91;7390606;19;20026;-84
2022/02/26 10:58:45;;;;;;;13.13;1.55;;;;;;;10.43;100.00;100956.47;7390246;19;20046;-84
2022/02/26 11:01:15;;;;;;;5.00;1.00;;;;;;;10.57;100.00;100948.41;7395841;19;20019;-82
2022/02/26 11:03:42;;;;;;;13.95;0.57;;;;;;;10.79;100.00;100944.91;7394193;19;20014;-83
2022/02/26 11:06:11;;;;;;;10.23;0.68;;;;;;;10.99;100.00;100942.59;7391090;19;20480;-82
2022/02/26 11:08:38;;;;;;;4.53;0.93;;;;;;;11.19;100.00;100929.16;7391024;19;20018;-83
2022/02/26 11:11:06;;;;;;;0.63;0.47;;;;;;;11.33;100.00;100929.41;7394812;19;20014;-82
2022/02/26 11:13:33;;;;;;;1.38;0.82;;;;;;;11.42;100.00;100934.25;7389008;19;20388;-82
2022/02/26 11:16:00;;;;;;;2.13;0.73;;;;;;;11.55;100.00;100923.78;7390603;19;20046;-82
2022/02/26 11:18:37;;;;;;;0.55;0.55;;;;;;;11.64;100.00;100917.50;7391145;19;20786;-83
2022/02/26 11:21:08;;;;;;;1.15;0.90;;;;;;;11.69;100.00;100912.13;7395555;19;20074;-81